createdAt,value
2022-11-15T00:00:10.874Z,98841.38
2022-11-15T00:03:16.500Z,98841.38
2022-11-15T00:06:20.744Z,98846.16
2022-11-15T00:09:25.027Z,98839.06
2022-11-15T00:12:29.743Z,98842.25
2022-11-15T00:15:36.369Z,98840.25
2022-11-15T00:18:40.268Z,98841.47
2022-11-15T00:21:44.607Z,98828.38
2022-11-15T00:24:48.841Z,98835.47
2022-11-15T00:27:57.071Z,98828.38
2022-11-15T00:31:06.386Z,98832.72
2022-11-15T00:34:11.509Z,98831.16
2022-11-15T00:37:16.136Z,98830.03
2022-11-15T00:40:20.426Z,98832.00
2022-11-15T00:43:24.499Z,98828.38
2022-11-15T00:46:28.862Z,98824.84
2022-11-15T00:49:33.018Z,98822.06
2022-11-15T00:52:37.267Z,98816.94
2022-11-15T00:55:41.570Z,98815.34
2022-11-15T00:58:45.542Z,98813.03
2022-11-15T01:01:49.806Z,98809.03
2022-11-15T01:04:53.977Z,98805.91
2022-11-15T01:07:58.681Z,98801.94
2022-11-15T01:11:08.901Z,98799.94
2022-11-15T01:14:13.007Z,98792.41
2022-11-15T01:17:17.193Z,98797.94
2022-11-15T01:20:21.497Z,98793.97
2022-11-15T01:23:25.570Z,98792.41
2022-11-15T01:34:39.394Z,98780.94
2022-11-15T01:37:43.636Z,98778.16
2022-11-15T01:40:48.021Z,98781.75
2022-11-15T01:43:57.814Z,98773.84
2022-11-15T01:47:07.893Z,98761.16
2022-11-15T01:50:16.946Z,98759.97
2022-11-15T01:53:24.587Z,98759.97
2022-11-15T01:56:32.467Z,98759.97
2022-11-15T01:59:39.067Z,98758.41
2022-11-15T02:02:43.884Z,98748.88
2022-11-15T02:05:48.086Z,98748.88
2022-11-15T02:08:52.912Z,98741.75
2022-11-15T02:11:57.589Z,98733.44
2022-11-15T02:15:02.877Z,98734.66
2022-11-15T02:18:30.219Z,98733.09
2022-11-15T02:21:40.034Z,98736.22
2022-11-15T02:25:05.537Z,98731.91
2022-11-15T02:28:34.108Z,98726.34
2022-11-15T02:31:59.753Z,98732.31
2022-11-15T02:35:09.790Z,98727.53
2022-11-15T02:38:43.207Z,98719.22
2022-11-15T02:42:04.583Z,98711.72
2022-11-15T02:45:13.780Z,98716.44
2022-11-15T02:48:19.710Z,98708.13
2022-11-15T02:51:23.879Z,98706.59
2022-11-15T02:54:32.398Z,98712.13
2022-11-15T02:57:36.426Z,98708.56
2022-11-15T03:00:55.822Z,98714.91
2022-11-15T03:04:12.223Z,98714.13
2022-11-15T03:07:30.244Z,98707.81
2022-11-15T03:10:50.930Z,98708.56
2022-11-15T03:13:59.923Z,98701.44
2022-11-15T03:17:33.003Z,98700.25
2022-11-15T03:20:37.818Z,98690.38
2022-11-15T03:23:42.618Z,98691.94
2022-11-15T03:26:49.063Z,98689.59
2022-11-15T03:29:59.795Z,98681.28
2022-11-15T03:33:05.700Z,98678.91
2022-11-15T03:36:09.589Z,98679.72
2022-11-15T03:39:20.252Z,98674.94
2022-11-15T03:42:44.168Z,98676.16
2022-11-15T03:45:55.530Z,98673.72
2022-11-15T03:49:13.510Z,98669.81
2022-11-15T03:52:22.972Z,98673.81
2022-11-15T03:55:27.914Z,98672.25
2022-11-15T03:58:32.195Z,98675.38
2022-11-15T04:01:36.493Z,98673.81
2022-11-15T04:04:41.054Z,98668.69
2022-11-15T04:07:45.026Z,98675.47
2022-11-15T04:10:53.410Z,98663.56
2022-11-15T04:13:57.247Z,98665.91
2022-11-15T04:17:01.528Z,98662.72
2022-11-15T04:20:26.775Z,98663.91
2022-11-15T04:23:49.501Z,98659.59
2022-11-15T04:26:53.824Z,98661.16
2022-11-15T04:29:58.390Z,98663.56
2022-11-15T04:33:02.171Z,98663.56
2022-11-15T04:36:24.887Z,98665.16
2022-11-15T04:39:29.126Z,98660.38
2022-11-15T04:42:33.340Z,98658.38
2022-11-15T04:45:37.623Z,98656.84
2022-11-15T04:48:41.826Z,98656.06
2022-11-15T04:51:45.845Z,98650.94
2022-11-15T04:54:50.087Z,98653.28
2022-11-15T04:58:02.401Z,98648.16
2022-11-15T05:01:10.690Z,98650.16
2022-11-15T05:04:21.068Z,98635.50
2022-11-15T05:07:25.023Z,98641.38
2022-11-15T05:10:29.280Z,98640.19
2022-11-15T05:13:33.884Z,98637.31
2022-11-15T05:16:38.357Z,98630.94
2022-11-15T05:19:42.539Z,98636.41
2022-11-15T05:22:48.152Z,98623.69
2022-11-15T05:25:52.576Z,98625.25
2022-11-15T05:28:58.903Z,98621.69
2022-11-15T05:32:06.933Z,98620.47
2022-11-15T05:35:30.781Z,98625.94
2022-11-15T05:38:35.079Z,98630.63
2022-11-15T05:41:46.202Z,98622.66
2022-11-15T05:44:50.924Z,98627.00
2022-11-15T05:47:58.575Z,98629.31
2022-11-15T05:51:05.761Z,98619.81
2022-11-15T05:54:11.465Z,98612.50
2022-11-15T05:57:15.664Z,98623.53
2022-11-15T06:00:19.958Z,98617.47
2022-11-15T06:03:23.674Z,98623.72
2022-11-15T06:06:29.375Z,98623.19
2022-11-15T06:09:34.117Z,98620.88
2022-11-15T06:12:38.672Z,98615.66
2022-11-15T06:15:42.989Z,98613.66
2022-11-15T06:18:47.274Z,98625.97
2022-11-15T06:21:51.418Z,98628.41
2022-11-15T06:24:55.702Z,98628.84
2022-11-15T06:28:00.291Z,98626.50
2022-11-15T06:31:06.143Z,98625.38
2022-11-15T06:34:10.515Z,98621.03
2022-11-15T06:37:14.694Z,98617.13
2022-11-15T06:40:18.944Z,98630.22
2022-11-15T06:43:23.338Z,98627.09
2022-11-15T06:46:27.743Z,98620.75
2022-11-15T06:49:32.260Z,98622.41
2022-11-15T06:52:36.333Z,98626.38
2022-11-15T06:55:40.531Z,98630.81
2022-11-15T06:58:44.854Z,98632.44
2022-11-15T07:01:50.601Z,98624.66
2022-11-15T07:04:55.027Z,98632.19
2022-11-15T07:07:59.710Z,98628.28
2022-11-15T07:11:06.507Z,98632.25
2022-11-15T07:14:10.382Z,98630.72
2022-11-15T07:17:14.457Z,98639.38
2022-11-15T07:20:19.731Z,98633.47
2022-11-15T07:23:24.081Z,98640.66
2022-11-15T07:26:28.113Z,98643.41
2022-11-15T07:29:32.793Z,98642.66
2022-11-15T07:32:37.156Z,98652.91
2022-11-15T07:35:41.451Z,98646.19
2022-11-15T07:38:45.657Z,98640.31
2022-11-15T07:41:50.548Z,98638.38
2022-11-15T07:44:54.464Z,98644.03
2022-11-15T07:47:58.659Z,98640.47
2022-11-15T07:51:03.815Z,98641.31
2022-11-15T07:54:07.927Z,98639.25
2022-11-15T07:57:12.062Z,98634.06
2022-11-15T08:00:17.092Z,98641.94
2022-11-15T08:03:21.493Z,98632.78
2022-11-15T08:06:26.003Z,98632.31
2022-11-15T08:09:30.389Z,98630.78
2022-11-15T08:12:35.261Z,98627.13
2022-11-15T08:15:39.366Z,98625.16
2022-11-15T08:18:43.586Z,98628.28
2022-11-15T08:21:48.010Z,98631.84
2022-11-15T08:24:52.108Z,98627.50
2022-11-15T08:28:02.517Z,98628.28
2022-11-15T08:31:07.122Z,98619.53
2022-11-15T08:34:10.975Z,98620.22
2022-11-15T08:37:15.097Z,98615.03
2022-11-15T08:40:19.737Z,98613.38
2022-11-15T08:43:23.722Z,98616.50
2022-11-15T08:46:28.138Z,98601.41
2022-11-15T08:49:32.368Z,98608.13
2022-11-15T08:52:36.838Z,98606.47
2022-11-15T08:55:42.058Z,98603.25
2022-11-15T08:58:46.339Z,98597.28
2022-11-15T09:01:50.805Z,98594.50
2022-11-15T09:04:54.604Z,98602.41
2022-11-15T09:07:58.694Z,98597.19
2022-11-15T09:11:07.937Z,98600.75
2022-11-15T09:14:15.617Z,98593.63
2022-11-15T09:17:24.448Z,98591.66
2022-11-15T09:20:29.200Z,98590.41
2022-11-15T09:23:33.566Z,98593.19
2022-11-15T09:26:38.154Z,98590.41
2022-11-15T09:29:42.551Z,98585.66
2022-11-15T09:32:46.591Z,98579.31
2022-11-15T09:35:50.875Z,98588.41
2022-11-15T09:38:55.737Z,98573.78
2022-11-15T09:42:09.950Z,98582.53
2022-11-15T09:45:38.273Z,98573.88
2022-11-15T09:48:55.283Z,98572.31
2022-11-15T09:52:01.238Z,98574.31
2022-11-15T09:54:55.230Z,98565.63
2022-11-15T09:58:08.550Z,98564.09
2022-11-15T10:00:54.613Z,98572.41
2022-11-15T10:03:43.022Z,98560.50
2022-11-15T10:06:28.366Z,98562.94
2022-11-15T10:09:19.977Z,98551.06
2022-11-15T10:12:10.182Z,98557.38
2022-11-15T10:15:05.287Z,98550.28
2022-11-15T10:18:07.360Z,98540.38
2022-11-15T10:21:03.703Z,98544.75
2022-11-15T10:23:49.730Z,98532.88
2022-11-15T10:26:34.928Z,98534.84
2022-11-15T10:29:27.063Z,98526.09
2022-11-15T10:32:14.615Z,98523.31
2022-11-15T10:35:00.194Z,98518.91
2022-11-15T10:37:45.419Z,98519.34
2022-11-15T10:40:30.741Z,98502.38
2022-11-15T10:43:19.799Z,98505.91
2022-11-15T10:46:45.149Z,98509.88
2022-11-15T10:49:32.587Z,98508.69
2022-11-15T10:52:21.066Z,98500.78
2022-11-15T10:55:25.129Z,98498.00
2022-11-15T10:58:31.510Z,98486.91
2022-11-15T11:01:26.333Z,98483.38
2022-11-15T11:04:11.706Z,98479.38
2022-11-15T11:06:59.870Z,98477.41
2022-11-15T11:09:45.374Z,98476.59
2022-11-15T11:12:33.439Z,98467.84
2022-11-15T11:15:19.546Z,98469.31
2022-11-15T11:18:16.448Z,98465.00
2022-11-15T11:21:10.906Z,98462.22
2022-11-15T11:24:08.393Z,98463.00
2022-11-15T11:27:09.378Z,98453.13
2022-11-15T11:30:08.450Z,98452.31
2022-11-15T11:33:02.916Z,98454.31
2022-11-15T11:35:57.742Z,98442.81
2022-11-15T11:38:56.201Z,98441.22
2022-11-15T11:41:53.639Z,98441.22
2022-11-15T11:44:54.058Z,98438.47
2022-11-15T11:47:45.300Z,98440.03
2022-11-15T11:50:30.515Z,98437.69
2022-11-15T11:53:25.229Z,98430.13
2022-11-15T11:56:29.443Z,98421.81
2022-11-15T12:02:21.500Z,98417.84
2022-11-15T12:05:32.648Z,98406.75
2022-11-15T12:08:34.445Z,98405.97
2022-11-15T12:11:27.263Z,98400.44
2022-11-15T12:14:26.086Z,98393.72
2022-11-15T12:17:12.896Z,98395.66
2022-11-15T12:19:59.987Z,98385.31
2022-11-15T12:22:53.625Z,98384.78
2022-11-15T12:26:23.339Z,98384.94
2022-11-15T12:29:42.748Z,98381.72
2022-11-15T12:32:38.604Z,98368.19
2022-11-15T12:35:41.510Z,98367.63
2022-11-15T12:38:59.182Z,98361.22
2022-11-15T12:41:57.050Z,98366.31
2022-11-15T12:44:42.191Z,98359.94
2022-11-15T12:47:27.931Z,98355.94
2022-11-15T12:50:14.880Z,98351.16
2022-11-15T12:53:26.439Z,98353.94
2022-11-15T12:56:17.686Z,98349.19
2022-11-15T12:59:03.456Z,98344.84
2022-11-15T13:01:48.861Z,98336.06
2022-11-15T13:04:34.458Z,98339.63
2022-11-15T13:07:41.475Z,98340.06
2022-11-15T13:10:28.141Z,98336.06
2022-11-15T13:13:44.281Z,98334.84
2022-11-15T13:16:30.024Z,98334.06
2022-11-15T13:19:16.075Z,98331.19
2022-11-15T13:22:24.568Z,98339.53
2022-11-15T13:25:46.305Z,98335.50
2022-11-15T13:28:44.840Z,98333.09
2022-11-15T13:31:44.502Z,98326.28
2022-11-15T13:34:53.124Z,98334.19
2022-11-15T13:37:40.916Z,98323.84
2022-11-15T13:40:35.506Z,98323.09
2022-11-15T13:43:29.277Z,98315.88
2022-11-15T13:49:08.906Z,98315.09
2022-11-15T13:51:55.940Z,98312.41
2022-11-15T13:54:57.874Z,98308.78
2022-11-15T13:57:45.496Z,98317.44
2022-11-15T14:03:29.733Z,98306.34
2022-11-15T14:06:18.326Z,98295.66
2022-11-15T14:09:10.187Z,98296.44
2022-11-15T14:11:57.204Z,98299.22
2022-11-15T14:14:47.474Z,98295.22
2022-11-15T14:17:32.749Z,98295.91
2022-11-15T14:20:37.275Z,98290.34
2022-11-15T14:23:28.197Z,98295.09
2022-11-15T14:26:33.466Z,98292.66
2022-11-15T14:29:27.163Z,98302.00
2022-11-15T14:32:22.686Z,98292.00
2022-11-15T14:35:16.120Z,98296.34
2022-11-15T14:38:01.573Z,98295.03
2022-11-15T14:40:47.427Z,98297.34
2022-11-15T14:43:33.009Z,98293.69
2022-11-15T14:46:19.222Z,98302.34
2022-11-15T14:49:04.511Z,98293.13
2022-11-15T14:51:49.907Z,98295.13
2022-11-15T14:54:35.177Z,98289.56
2022-11-15T14:57:20.686Z,98281.56
2022-11-15T15:00:06.713Z,98283.44
2022-11-15T15:02:58.964Z,98288.25
2022-11-15T15:05:45.107Z,98287.81
2022-11-15T15:08:30.734Z,98279.00
2022-11-15T15:11:28.494Z,98279.66
2022-11-15T15:14:15.193Z,98278.78
2022-11-15T15:17:00.709Z,98274.00
2022-11-15T15:19:46.138Z,98275.88
2022-11-15T15:22:31.715Z,98269.88
2022-11-15T15:25:36.009Z,98268.88
2022-11-15T15:28:21.464Z,98273.63
2022-11-15T15:31:06.892Z,98273.63
2022-11-15T15:33:52.231Z,98275.88
2022-11-15T15:36:37.804Z,98272.53
2022-11-15T15:39:22.974Z,98269.34
2022-11-15T15:42:08.409Z,98264.53
2022-11-15T15:44:53.744Z,98265.22
2022-11-15T15:47:39.733Z,98273.22
2022-11-15T15:50:31.091Z,98272.31
2022-11-15T15:53:17.008Z,98267.84
2022-11-15T15:56:02.977Z,98266.97
2022-11-15T15:58:48.605Z,98261.75
2022-11-15T16:01:33.903Z,98258.97
2022-11-15T16:04:19.860Z,98264.06
2022-11-15T16:07:05.477Z,98255.72
2022-11-15T16:10:01.154Z,98256.94
2022-11-15T16:12:46.879Z,98260.16
2022-11-15T16:15:33.151Z,98261.41
2022-11-15T16:18:19.060Z,98267.41
2022-11-15T16:21:04.627Z,98259.50
2022-11-15T16:23:49.866Z,98263.09
2022-11-15T16:26:37.670Z,98261.84
2022-11-15T16:29:24.031Z,98244.41
2022-11-15T16:32:09.733Z,98247.63
2022-11-15T16:34:57.073Z,98250.66
2022-11-15T16:37:44.986Z,98251.09
2022-11-15T16:40:33.854Z,98250.28
2022-11-15T16:43:19.822Z,98254.31
2022-11-15T16:46:13.961Z,98248.09
2022-11-15T16:48:59.537Z,98250.41
2022-11-15T16:51:49.746Z,98245.16
2022-11-15T16:54:35.047Z,98249.41
2022-11-15T16:57:20.601Z,98252.41
2022-11-15T17:00:06.439Z,98239.75
2022-11-15T17:02:53.032Z,98242.53
2022-11-15T17:05:38.310Z,98240.19
2022-11-15T17:08:24.288Z,98232.75
2022-11-15T17:11:09.952Z,98227.66
2022-11-15T17:13:59.725Z,98223.63
2022-11-15T17:16:45.796Z,98224.53
2022-11-15T17:19:31.585Z,98230.53
2022-11-15T17:22:16.974Z,98234.75
2022-11-15T17:25:03.182Z,98226.09
2022-11-15T17:27:49.041Z,98227.31
2022-11-15T17:30:35.816Z,98226.31
2022-11-15T17:33:21.705Z,98230.00
2022-11-15T17:36:11.005Z,98227.88
2022-11-15T17:38:59.469Z,98230.44
2022-11-15T17:41:45.550Z,98228.44
2022-11-15T17:44:32.696Z,98220.91
2022-11-15T17:47:18.198Z,98221.34
2022-11-15T17:50:03.873Z,98212.25
2022-11-15T17:52:49.581Z,98217.31
2022-11-15T17:55:34.879Z,98205.59
2022-11-15T17:58:20.307Z,98206.34
2022-11-15T18:01:12.488Z,98206.03
2022-11-15T18:04:00.802Z,98202.00
2022-11-15T18:06:46.994Z,98199.03
2022-11-15T18:09:32.526Z,98183.38
2022-11-15T18:12:18.034Z,98186.50
2022-11-15T18:15:04.016Z,98182.63
2022-11-15T18:17:49.873Z,98180.59
2022-11-15T18:20:35.701Z,98177.72
2022-11-15T18:23:21.095Z,98170.94
2022-11-15T18:26:07.904Z,98171.69
2022-11-15T18:29:02.056Z,98178.72
2022-11-15T18:40:11.028Z,98160.94
2022-11-15T18:42:57.431Z,98159.25
2022-11-15T18:45:42.910Z,98155.38
2022-11-15T18:48:31.541Z,98162.28
2022-11-15T18:51:23.023Z,98164.59
2022-11-15T18:54:14.741Z,98161.06
2022-11-15T18:57:00.229Z,98159.81
2022-11-15T18:59:45.457Z,98164.94
2022-11-15T19:02:31.342Z,98162.16
2022-11-15T19:05:21.697Z,98161.06
2022-11-15T19:08:07.556Z,98167.38
2022-11-15T19:10:53.304Z,98172.03
2022-11-15T19:13:39.642Z,98172.94
2022-11-15T19:16:26.592Z,98179.59
2022-11-15T19:19:14.858Z,98182.38
2022-11-15T19:22:00.976Z,98172.28
2022-11-15T19:24:46.253Z,98163.50
2022-11-15T19:27:36.917Z,98154.72
2022-11-15T19:30:23.444Z,98152.72
2022-11-15T19:33:09.112Z,98140.81
2022-11-15T19:36:00.661Z,98143.16
2022-11-15T19:38:46.215Z,98146.19
2022-11-15T19:41:32.299Z,98143.59
2022-11-15T19:44:18.944Z,98136.94
2022-11-15T19:47:04.470Z,98138.94
2022-11-15T19:49:49.866Z,98137.28
2022-11-15T19:52:35.168Z,98142.84
2022-11-15T19:55:20.498Z,98144.16
2022-11-15T19:58:05.641Z,98152.00
2022-11-15T20:00:51.176Z,98148.78
2022-11-15T20:03:39.176Z,98153.59
2022-11-15T20:06:30.982Z,98151.38
2022-11-15T20:09:16.893Z,98142.38
2022-11-15T20:12:02.318Z,98145.28
2022-11-15T20:14:47.806Z,98140.31
2022-11-15T20:17:33.281Z,98139.63
2022-11-15T20:20:18.798Z,98127.88
2022-11-15T20:23:04.122Z,98117.66
2022-11-15T20:25:49.782Z,98119.78
2022-11-15T20:28:37.514Z,98127.78
2022-11-15T20:31:23.198Z,98120.03
2022-11-15T20:34:08.501Z,98124.47
2022-11-15T20:36:53.594Z,98128.13
2022-11-15T20:39:39.491Z,98122.72
2022-11-15T20:42:24.815Z,98126.38
2022-11-15T20:45:10.587Z,98125.69
2022-11-15T20:47:59.555Z,98117.38
2022-11-15T20:50:47.216Z,98117.25
2022-11-15T20:53:33.680Z,98111.94
2022-11-15T20:56:21.323Z,98107.94
2022-11-15T20:59:07.086Z,98105.50
2022-11-15T21:01:52.582Z,98105.81
2022-11-15T21:07:23.814Z,98110.78
2022-11-15T21:10:28.798Z,98113.56
2022-11-15T21:13:14.342Z,98104.03
2022-11-15T21:16:00.642Z,98107.25
2022-11-15T21:18:46.057Z,98099.69
2022-11-15T21:21:31.395Z,98102.47
2022-11-15T21:24:16.873Z,98096.03
2022-11-15T21:27:02.293Z,98093.25
2022-11-15T21:29:50.342Z,98088.81
2022-11-15T21:32:35.973Z,98083.25
2022-11-15T21:35:21.424Z,98078.81
2022-11-15T21:38:06.772Z,98074.78
2022-11-15T21:40:53.293Z,98067.25
2022-11-15T21:43:38.954Z,98071.56
2022-11-15T21:46:24.016Z,98063.25
2022-11-15T21:49:09.612Z,98057.38
2022-11-15T21:51:55.411Z,98054.91
2022-11-15T21:54:41.744Z,98050.13
2022-11-15T21:57:30.164Z,98048.94
2022-11-15T22:00:35.397Z,98051.22
2022-11-15T22:05:53.737Z,98053.25
2022-11-15T22:08:39.013Z,98047.25
2022-11-15T22:11:24.414Z,98050.78
2022-11-15T22:14:09.672Z,98058.13
2022-11-15T22:16:54.882Z,98054.91
2022-11-15T22:19:51.761Z,98046.47
2022-11-15T22:22:37.747Z,98036.47
2022-11-15T22:25:23.418Z,98032.94
2022-11-15T22:28:08.971Z,98028.59
2022-11-15T22:30:55.279Z,98026.56
2022-11-15T22:33:40.959Z,98026.56
2022-11-15T22:36:34.916Z,98019.81
2022-11-15T22:39:28.113Z,98019.81
2022-11-15T22:42:13.435Z,98015.47
2022-11-15T22:44:59.105Z,98008.22
2022-11-15T22:47:44.511Z,98002.06
2022-11-15T22:50:29.846Z,97998.94
2022-11-15T22:53:15.101Z,97999.41
2022-11-15T22:56:02.949Z,97994.28
2022-11-15T22:58:48.661Z,97995.97
2022-11-15T23:01:34.044Z,97993.66
2022-11-15T23:04:19.142Z,97982.66
2022-11-15T23:07:04.650Z,97976.47
2022-11-15T23:09:52.223Z,97975.38
2022-11-15T23:12:56.448Z,97969.50
2022-11-15T23:16:01.362Z,97966.84
2022-11-15T23:18:46.924Z,97965.75
2022-11-15T23:21:55.116Z,97960.78
2022-11-15T23:24:40.523Z,97960.41
2022-11-15T23:27:25.894Z,97956.53
2022-11-15T23:30:30.465Z,97960.22
2022-11-15T23:33:34.254Z,97959.09
2022-11-15T23:36:19.413Z,97950.47
2022-11-15T23:39:05.030Z,97952.91
2022-11-15T23:41:50.364Z,97956.56
2022-11-15T23:44:35.741Z,97953.47
2022-11-15T23:47:20.958Z,97944.81
2022-11-15T23:50:06.894Z,97947.25
2022-11-15T23:52:52.166Z,97956.81
2022-11-15T23:55:37.430Z,97956.50
2022-11-15T23:58:22.898Z,97954.16
